sensor_id;sensor_type;location;lat;lon;timestamp;pressure;altitude;pressure_sealevel;temperature;humidity
37304;BME280;23188;51.188;16.374;2023-09-19T00:01:10;99498.77;;;20.41;100.00
37304;BME280;23188;51.188;16.374;2023-09-19T00:05:15;99489.84;;;20.40;100.00
37304;BME280;23188;51.188;16.374;2023-09-19T00:09:18;99489.71;;;20.39;100.00
37304;BME280;23188;51.188;16.374;2023-09-19T00:13:19;99484.39;;;20.39;100.00
37304;BME280;23188;51.188;16.374;2023-09-19T00:17:27;99487.13;;;20.42;100.00
37304;BME280;23188;51.188;16.374;2023-09-19T00:21:40;99489.17;;;20.45;100.00
37304;BME280;23188;51.188;16.374;2023-09-19T00:25:43;99497.82;;;20.41;100.00
37304;BME280;23188;51.188;16.374;2023-09-19T00:29:45;99499.84;;;20.43;100.00
37304;BME280;23188;51.188;16.374;2023-09-19T00:33:46;99495.70;;;20.46;100.00
37304;BME280;23188;51.188;16.374;2023-09-19T00:37:52;99503.08;;;20.49;100.00
37304;BME280;23188;51.188;16.374;2023-09-19T00:41:59;99504.55;;;20.58;100.00
37304;BME280;23188;51.188;16.374;2023-09-19T00:46:07;99500.64;;;20.66;100.00
37304;BME280;23188;51.188;16.374;2023-09-19T00:50:11;99495.81;;;20.68;100.00
37304;BME280;23188;51.188;16.374;2023-09-19T00:54:17;99489.50;;;20.68;100.00
37304;BME280;23188;51.188;16.374;2023-09-19T00:58:20;99485.33;;;20.74;100.00
37304;BME280;23188;51.188;16.374;2023-09-19T01:02:23;99477.75;;;20.79;100.00
37304;BME280;23188;51.188;16.374;2023-09-19T01:06:25;99475.18;;;20.86;100.00
37304;BME280;23188;51.188;16.374;2023-09-19T01:10:29;99480.70;;;20.87;100.00
37304;BME280;23188;51.188;16.374;2023-09-19T01:14:37;99479.13;;;20.76;100.00
37304;BME280;23188;51.188;16.374;2023-09-19T01:19:05;99477.38;;;20.73;100.00
37304;BME280;23188;51.188;16.374;2023-09-19T01:31:40;99472.32;;;20.57;100.00
37304;BME280;23188;51.188;16.374;2023-09-19T01:35:45;99472.75;;;20.45;100.00
37304;BME280;23188;51.188;16.374;2023-09-19T01:39:48;99464.54;;;20.46;100.00
37304;BME280;23188;51.188;16.374;2023-09-19T01:43:54;99461.25;;;20.42;100.00
37304;BME280;23188;51.188;16.374;2023-09-19T01:47:59;99458.73;;;20.36;100.00
37304;BME280;23188;51.188;16.374;2023-09-19T01:52:12;99451.79;;;20.32;100.00
37304;BME280;23188;51.188;16.374;2023-09-19T01:56:34;99450.45;;;20.37;100.00
37304;BME280;23188;51.188;16.374;2023-09-19T02:00:54;99453.47;;;20.48;100.00
37304;BME280;23188;51.188;16.374;2023-09-19T02:05:05;99460.80;;;20.53;100.00
37304;BME280;23188;51.188;16.374;2023-09-19T02:09:17;99464.30;;;20.52;100.00
37304;BME280;23188;51.188;16.374;2023-09-19T02:13:20;99460.60;;;20.56;100.00
37304;BME280;23188;51.188;16.374;2023-09-19T02:17:28;99464.50;;;20.56;100.00
37304;BME280;23188;51.188;16.374;2023-09-19T02:21:30;99465.05;;;20.52;100.00
37304;BME280;23188;51.188;16.374;2023-09-19T02:25:39;99465.78;;;20.47;100.00
37304;BME280;23188;51.188;16.374;2023-09-19T02:34:13;99469.23;;;20.41;100.00
37304;BME280;23188;51.188;16.374;2023-09-19T02:38:19;99471.73;;;20.35;100.00
37304;BME280;23188;51.188;16.374;2023-09-19T02:42:26;99470.38;;;20.29;100.00
37304;BME280;23188;51.188;16.374;2023-09-19T02:46:28;99469.71;;;20.27;100.00
37304;BME280;23188;51.188;16.374;2023-09-19T02:50:31;99465.92;;;20.22;100.00
37304;BME280;23188;51.188;16.374;2023-09-19T02:54:33;99465.56;;;20.18;100.00
37304;BME280;23188;51.188;16.374;2023-09-19T02:58:35;99457.02;;;20.15;100.00
37304;BME280;23188;51.188;16.374;2023-09-19T03:02:39;99459.00;;;20.19;100.00
37304;BME280;23188;51.188;16.374;2023-09-19T03:06:43;99461.69;;;20.21;100.00
37304;BME280;23188;51.188;16.374;2023-09-19T03:10:56;99459.14;;;20.16;100.00
37304;BME280;23188;51.188;16.374;2023-09-19T03:14:58;99456.31;;;20.16;100.00
37304;BME280;23188;51.188;16.374;2023-09-19T03:19:03;99454.19;;;20.17;100.00
37304;BME280;23188;51.188;16.374;2023-09-19T03:23:05;99453.36;;;20.12;100.00
37304;BME280;23188;51.188;16.374;2023-09-19T03:27:10;99455.20;;;20.05;100.00
37304;BME280;23188;51.188;16.374;2023-09-19T03:31:12;99451.13;;;20.01;100.00
37304;BME280;23188;51.188;16.374;2023-09-19T03:35:15;99450.48;;;19.84;100.00
37304;BME280;23188;51.188;16.374;2023-09-19T03:39:19;99454.49;;;19.73;100.00
37304;BME280;23188;51.188;16.374;2023-09-19T03:47:30;99455.83;;;19.68;100.00
37304;BME280;23188;51.188;16.374;2023-09-19T03:51:32;99455.77;;;19.69;100.00
37304;BME280;23188;51.188;16.374;2023-09-19T03:55:36;99459.94;;;19.67;100.00
37304;BME280;23188;51.188;16.374;2023-09-19T03:59:41;99456.27;;;19.65;100.00
37304;BME280;23188;51.188;16.374;2023-09-19T04:03:44;99451.78;;;19.62;100.00
37304;BME280;23188;51.188;16.374;2023-09-19T04:07:50;99454.27;;;19.62;100.00
37304;BME280;23188;51.188;16.374;2023-09-19T04:12:11;99457.73;;;19.66;100.00
37304;BME280;23188;51.188;16.374;2023-09-19T04:16:33;99456.61;;;19.69;100.00
37304;BME280;23188;51.188;16.374;2023-09-19T04:20:35;99458.52;;;19.69;100.00
37304;BME280;23188;51.188;16.374;2023-09-19T04:24:38;99465.79;;;19.69;100.00
37304;BME280;23188;51.188;16.374;2023-09-19T04:28:40;99468.89;;;19.64;100.00
37304;BME280;23188;51.188;16.374;2023-09-19T04:32:42;99474.69;;;19.59;100.00
37304;BME280;23188;51.188;16.374;2023-09-19T04:36:46;99480.30;;;19.55;100.00
37304;BME280;23188;51.188;16.374;2023-09-19T04:40:48;99482.64;;;19.52;100.00
37304;BME280;23188;51.188;16.374;2023-09-19T04:44:51;99485.61;;;19.45;100.00
37304;BME280;23188;51.188;16.374;2023-09-19T04:48:55;99489.36;;;19.36;100.00
37304;BME280;23188;51.188;16.374;2023-09-19T04:52:57;99492.88;;;19.31;100.00
37304;BME280;23188;51.188;16.374;2023-09-19T05:01:48;99496.05;;;19.36;100.00
37304;BME280;23188;51.188;16.374;2023-09-19T05:05:51;99496.42;;;19.36;100.00
37304;BME280;23188;51.188;16.374;2023-09-19T05:09:56;99500.55;;;19.33;100.00
37304;BME280;23188;51.188;16.374;2023-09-19T05:13:59;99508.44;;;19.32;100.00
37304;BME280;23188;51.188;16.374;2023-09-19T05:18:06;99510.98;;;19.35;100.00
37304;BME280;23188;51.188;16.374;2023-09-19T05:22:12;99517.80;;;19.39;100.00
37304;BME280;23188;51.188;16.374;2023-09-19T05:26:14;99517.98;;;19.48;100.00
37304;BME280;23188;51.188;16.374;2023-09-19T05:30:18;99522.91;;;19.61;100.00
37304;BME280;23188;51.188;16.374;2023-09-19T05:34:22;99515.80;;;19.78;100.00
37304;BME280;23188;51.188;16.374;2023-09-19T05:38:25;99518.59;;;20.12;100.00
37304;BME280;23188;51.188;16.374;2023-09-19T05:42:30;99523.68;;;20.57;100.00
37304;BME280;23188;51.188;16.374;2023-09-19T05:46:32;99518.25;;;20.95;100.00
37304;BME280;23188;51.188;16.374;2023-09-19T05:50:38;99533.55;;;21.49;100.00
37304;BME280;23188;51.188;16.374;2023-09-19T05:54:40;99540.11;;;21.90;100.00
37304;BME280;23188;51.188;16.374;2023-09-19T05:58:45;99539.55;;;21.94;100.00
37304;BME280;23188;51.188;16.374;2023-09-19T06:02:54;99545.10;;;22.00;100.00
37304;BME280;23188;51.188;16.374;2023-09-19T06:07:03;99552.71;;;22.12;100.00
37304;BME280;23188;51.188;16.374;2023-09-19T06:11:06;99547.81;;;22.10;100.00
37304;BME280;23188;51.188;16.374;2023-09-19T06:15:09;99550.92;;;21.98;100.00
37304;BME280;23188;51.188;16.374;2023-09-19T06:19:16;99560.10;;;21.92;100.00
37304;BME280;23188;51.188;16.374;2023-09-19T06:23:20;99566.15;;;21.77;100.00
37304;BME280;23188;51.188;16.374;2023-09-19T06:27:28;99569.02;;;21.69;100.00
37304;BME280;23188;51.188;16.374;2023-09-19T06:31:31;99576.98;;;21.76;100.00
37304;BME280;23188;51.188;16.374;2023-09-19T06:35:34;99579.50;;;21.92;100.00
37304;BME280;23188;51.188;16.374;2023-09-19T06:39:36;99583.16;;;22.08;100.00
37304;BME280;23188;51.188;16.374;2023-09-19T06:43:39;99587.45;;;22.13;100.00
37304;BME280;23188;51.188;16.374;2023-09-19T06:47:41;99587.89;;;22.02;100.00
37304;BME280;23188;51.188;16.374;2023-09-19T06:51:46;99599.59;;;21.96;100.00
37304;BME280;23188;51.188;16.374;2023-09-19T06:55:52;99601.95;;;21.80;100.00
37304;BME280;23188;51.188;16.374;2023-09-19T06:59:54;99607.10;;;21.56;100.00
37304;BME280;23188;51.188;16.374;2023-09-19T07:03:56;99611.18;;;21.56;100.00
37304;BME280;23188;51.188;16.374;2023-09-19T07:07:58;99611.13;;;21.53;100.00
37304;BME280;23188;51.188;16.374;2023-09-19T07:12:01;99617.23;;;21.59;100.00
37304;BME280;23188;51.188;16.374;2023-09-19T07:16:08;99619.92;;;21.60;100.00
37304;BME280;23188;51.188;16.374;2023-09-19T07:20:13;99624.85;;;21.51;100.00
37304;BME280;23188;51.188;16.374;2023-09-19T07:24:20;99633.47;;;21.28;100.00
37304;BME280;23188;51.188;16.374;2023-09-19T07:28:25;99633.49;;;21.00;100.00
37304;BME280;23188;51.188;16.374;2023-09-19T07:32:27;99639.16;;;20.94;100.00
37304;BME280;23188;51.188;16.374;2023-09-19T07:36:29;99645.18;;;20.78;100.00
37304;BME280;23188;51.188;16.374;2023-09-19T07:40:32;99649.29;;;20.58;100.00
37304;BME280;23188;51.188;16.374;2023-09-19T07:44:37;99654.23;;;20.52;100.00
37304;BME280;23188;51.188;16.374;2023-09-19T07:48:39;99660.45;;;20.43;100.00
37304;BME280;23188;51.188;16.374;2023-09-19T07:52:44;99663.50;;;20.42;100.00
37304;BME280;23188;51.188;16.374;2023-09-19T07:56:46;99669.75;;;20.35;100.00
37304;BME280;23188;51.188;16.374;2023-09-19T08:00:48;99676.09;;;20.40;100.00
37304;BME280;23188;51.188;16.374;2023-09-19T08:04:50;99675.69;;;20.36;100.00
37304;BME280;23188;51.188;16.374;2023-09-19T08:08:56;99681.23;;;20.43;100.00
37304;BME280;23188;51.188;16.374;2023-09-19T08:13:00;99687.39;;;20.49;100.00
37304;BME280;23188;51.188;16.374;2023-09-19T08:17:05;99686.83;;;20.60;100.00
37304;BME280;23188;51.188;16.374;2023-09-19T08:21:16;99689.84;;;20.91;100.00
37304;BME280;23188;51.188;16.374;2023-09-19T08:25:19;99693.77;;;20.97;100.00
37304;BME280;23188;51.188;16.374;2023-09-19T08:29:25;99701.91;;;20.90;100.00
37304;BME280;23188;51.188;16.374;2023-09-19T08:33:40;99702.02;;;20.96;100.00
37304;BME280;23188;51.188;16.374;2023-09-19T08:37:44;99705.95;;;20.95;100.00
37304;BME280;23188;51.188;16.374;2023-09-19T08:41:57;99713.35;;;20.99;100.00
37304;BME280;23188;51.188;16.374;2023-09-19T08:50:19;99719.33;;;21.07;100.00
37304;BME280;23188;51.188;16.374;2023-09-19T08:54:25;99718.92;;;20.99;100.00
37304;BME280;23188;51.188;16.374;2023-09-19T08:58:31;99725.73;;;21.00;100.00
37304;BME280;23188;51.188;16.374;2023-09-19T09:02:39;99732.06;;;21.02;100.00
37304;BME280;23188;51.188;16.374;2023-09-19T09:06:43;99732.43;;;21.18;100.00
37304;BME280;23188;51.188;16.374;2023-09-19T09:10:50;99734.91;;;21.29;100.00
37304;BME280;23188;51.188;16.374;2023-09-19T09:14:53;99735.14;;;21.43;100.00
37304;BME280;23188;51.188;16.374;2023-09-19T09:18:55;99735.58;;;21.57;100.00
37304;BME280;23188;51.188;16.374;2023-09-19T09:23:02;99743.39;;;21.45;100.00
37304;BME280;23188;51.188;16.374;2023-09-19T09:27:06;99745.75;;;21.42;99.49
37304;BME280;23188;51.188;16.374;2023-09-19T09:31:24;99757.30;;;21.31;99.98
37304;BME280;23188;51.188;16.374;2023-09-19T09:35:30;99760.63;;;21.29;100.00
37304;BME280;23188;51.188;16.374;2023-09-19T09:39:32;99757.27;;;21.50;100.00
37304;BME280;23188;51.188;16.374;2023-09-19T09:43:34;99770.88;;;21.62;100.00
37304;BME280;23188;51.188;16.374;2023-09-19T09:47:47;99774.74;;;21.65;99.65
37304;BME280;23188;51.188;16.374;2023-09-19T09:56:05;99780.28;;;21.67;99.39
37304;BME280;23188;51.188;16.374;2023-09-19T10:00:11;99784.23;;;21.69;99.49
37304;BME280;23188;51.188;16.374;2023-09-19T10:04:28;99777.70;;;21.64;96.03
37304;BME280;23188;51.188;16.374;2023-09-19T10:08:43;99778.67;;;21.94;97.04
37304;BME280;23188;51.188;16.374;2023-09-19T10:13:08;99783.35;;;22.07;92.50
37304;BME280;23188;51.188;16.374;2023-09-19T10:17:21;99784.59;;;22.09;92.50
37304;BME280;23188;51.188;16.374;2023-09-19T10:21:36;99783.09;;;22.36;91.74
37304;BME280;23188;51.188;16.374;2023-09-19T10:29:49;99786.33;;;22.59;87.28
37304;BME280;23188;51.188;16.374;2023-09-19T10:33:55;99793.94;;;22.62;88.16
37304;BME280;23188;51.188;16.374;2023-09-19T10:38:12;99791.80;;;22.46;85.60
37304;BME280;23188;51.188;16.374;2023-09-19T10:42:20;99784.35;;;22.56;84.27
37304;BME280;23188;51.188;16.374;2023-09-19T10:46:23;99787.25;;;22.79;83.49
37304;BME280;23188;51.188;16.374;2023-09-19T10:50:26;99798.11;;;22.95;82.24
37304;BME280;23188;51.188;16.374;2023-09-19T10:54:33;99803.05;;;23.04;81.74
37304;BME280;23188;51.188;16.374;2023-09-19T10:58:40;99797.96;;;23.10;79.39
37304;BME280;23188;51.188;16.374;2023-09-19T11:07:17;99809.36;;;23.20;80.04
37304;BME280;23188;51.188;16.374;2023-09-19T11:24:28;99794.37;;;23.28;75.45
37304;BME280;23188;51.188;16.374;2023-09-19T11:28:36;99800.59;;;23.00;74.37
37304;BME280;23188;51.188;16.374;2023-09-19T11:49:54;99794.41;;;23.21;73.24
37304;BME280;23188;51.188;16.374;2023-09-19T11:58:27;99808.35;;;23.10;71.35
37304;BME280;23188;51.188;16.374;2023-09-19T12:02:39;99811.22;;;23.11;72.81
37304;BME280;23188;51.188;16.374;2023-09-19T12:06:57;99801.55;;;23.22;72.62
37304;BME280;23188;51.188;16.374;2023-09-19T12:11:01;99805.80;;;23.10;70.98
37304;BME280;23188;51.188;16.374;2023-09-19T12:15:04;99801.45;;;23.11;71.57
37304;BME280;23188;51.188;16.374;2023-09-19T12:19:18;99809.71;;;23.36;72.70
37304;BME280;23188;51.188;16.374;2023-09-19T12:23:29;99803.44;;;23.42;69.87
37304;BME280;23188;51.188;16.374;2023-09-19T12:27:31;99798.48;;;23.55;69.13
37304;BME280;23188;51.188;16.374;2023-09-19T12:35:52;99795.01;;;23.56;68.68
37304;BME280;23188;51.188;16.374;2023-09-19T12:40:06;99794.01;;;23.56;68.26
37304;BME280;23188;51.188;16.374;2023-09-19T12:44:22;99796.86;;;23.66;69.52
37304;BME280;23188;51.188;16.374;2023-09-19T12:48:27;99791.06;;;23.90;69.16
37304;BME280;23188;51.188;16.374;2023-09-19T12:52:41;99788.20;;;23.96;66.79
37304;BME280;23188;51.188;16.374;2023-09-19T12:56:47;99781.25;;;23.93;67.83
37304;BME280;23188;51.188;16.374;2023-09-19T13:00:53;99769.78;;;24.07;67.95
37304;BME280;23188;51.188;16.374;2023-09-19T13:04:58;99769.73;;;24.07;67.83
37304;BME280;23188;51.188;16.374;2023-09-19T13:09:08;99766.61;;;24.02;66.87
37304;BME280;23188;51.188;16.374;2023-09-19T13:17:42;99766.68;;;24.16;66.66
37304;BME280;23188;51.188;16.374;2023-09-19T13:21:46;99764.14;;;24.30;66.24
37304;BME280;23188;51.188;16.374;2023-09-19T13:25:54;99763.29;;;24.29;65.49
37304;BME280;23188;51.188;16.374;2023-09-19T13:29:57;99760.17;;;24.43;64.53
37304;BME280;23188;51.188;16.374;2023-09-19T13:34:00;99760.92;;;24.55;64.71
37304;BME280;23188;51.188;16.374;2023-09-19T13:38:02;99759.74;;;24.72;65.71
37304;BME280;23188;51.188;16.374;2023-09-19T13:42:06;99757.40;;;24.76;64.39
37304;BME280;23188;51.188;16.374;2023-09-19T13:46:08;99758.14;;;24.78;65.15
37304;BME280;23188;51.188;16.374;2023-09-19T13:50:15;99760.97;;;24.60;65.60
37304;BME280;23188;51.188;16.374;2023-09-19T13:54:28;99765.69;;;24.64;64.22
37304;BME280;23188;51.188;16.374;2023-09-19T13:58:30;99759.23;;;24.47;64.47
37304;BME280;23188;51.188;16.374;2023-09-19T14:02:39;99767.67;;;24.26;66.94
37304;BME280;23188;51.188;16.374;2023-09-19T14:06:43;99767.86;;;24.30;66.73
37304;BME280;23188;51.188;16.374;2023-09-19T14:10:49;99763.49;;;24.47;66.47
37304;BME280;23188;51.188;16.374;2023-09-19T14:14:51;99760.88;;;24.63;66.54
37304;BME280;23188;51.188;16.374;2023-09-19T14:18:55;99760.96;;;24.58;66.51
37304;BME280;23188;51.188;16.374;2023-09-19T14:22:58;99761.48;;;24.47;65.48
37304;BME280;23188;51.188;16.374;2023-09-19T14:27:04;99758.08;;;24.33;66.34
37304;BME280;23188;51.188;16.374;2023-09-19T14:31:08;99757.13;;;24.19;64.99
37304;BME280;23188;51.188;16.374;2023-09-19T14:35:11;99760.25;;;23.91;67.45
37304;BME280;23188;51.188;16.374;2023-09-19T14:39:19;99761.89;;;23.68;68.72
37304;BME280;23188;51.188;16.374;2023-09-19T14:43:32;99766.35;;;23.61;68.12
37304;BME280;23188;51.188;16.374;2023-09-19T14:47:50;99767.20;;;23.55;69.05
37304;BME280;23188;51.188;16.374;2023-09-19T14:52:09;99770.93;;;23.78;69.63
37304;BME280;23188;51.188;16.374;2023-09-19T14:56:14;99765.92;;;23.88;68.85
37304;BME280;23188;51.188;16.374;2023-09-19T15:00:43;99771.83;;;23.77;67.90
37304;BME280;23188;51.188;16.374;2023-09-19T15:04:51;99778.92;;;23.60;68.44
37304;BME280;23188;51.188;16.374;2023-09-19T15:08:59;99777.48;;;23.52;68.89
37304;BME280;23188;51.188;16.374;2023-09-19T15:13:01;99779.27;;;23.50;68.34
37304;BME280;23188;51.188;16.374;2023-09-19T15:17:11;99777.63;;;23.48;68.60
37304;BME280;23188;51.188;16.374;2023-09-19T15:21:17;99773.13;;;23.44;69.71
37304;BME280;23188;51.188;16.374;2023-09-19T15:25:20;99776.77;;;23.36;68.92
37304;BME280;23188;51.188;16.374;2023-09-19T15:29:23;99782.96;;;23.31;69.03
37304;BME280;23188;51.188;16.374;2023-09-19T15:33:41;99783.23;;;23.34;68.18
37304;BME280;23188;51.188;16.374;2023-09-19T15:37:56;99784.88;;;23.25;69.59
37304;BME280;23188;51.188;16.374;2023-09-19T15:42:00;99782.53;;;23.13;70.96
37304;BME280;23188;51.188;16.374;2023-09-19T15:46:03;99787.88;;;23.08;70.39
37304;BME280;23188;51.188;16.374;2023-09-19T15:50:05;99789.14;;;23.06;70.57
37304;BME280;23188;51.188;16.374;2023-09-19T15:54:19;99791.16;;;22.93;70.86
37304;BME280;23188;51.188;16.374;2023-09-19T15:58:21;99788.06;;;22.76;71.14
37304;BME280;23188;51.188;16.374;2023-09-19T16:02:24;99790.35;;;22.55;72.91
37304;BME280;23188;51.188;16.374;2023-09-19T16:06:31;99797.35;;;22.36;75.37
37304;BME280;23188;51.188;16.374;2023-09-19T16:10:36;99800.73;;;22.11;77.55
37304;BME280;23188;51.188;16.374;2023-09-19T16:14:44;99808.61;;;21.82;79.45
37304;BME280;23188;51.188;16.374;2023-09-19T16:18:46;99805.95;;;21.58;80.71
37304;BME280;23188;51.188;16.374;2023-09-19T16:22:55;99809.39;;;21.41;82.29
37304;BME280;23188;51.188;16.374;2023-09-19T16:27:14;99810.77;;;21.27;83.29
37304;BME280;23188;51.188;16.374;2023-09-19T16:31:17;99812.14;;;21.16;83.94
37304;BME280;23188;51.188;16.374;2023-09-19T16:35:19;99814.20;;;21.06;84.62
37304;BME280;23188;51.188;16.374;2023-09-19T16:39:21;99815.66;;;20.96;85.21
37304;BME280;23188;51.188;16.374;2023-09-19T16:43:25;99820.67;;;20.87;86.38
37304;BME280;23188;51.188;16.374;2023-09-19T16:47:27;99820.77;;;20.81;86.99
37304;BME280;23188;51.188;16.374;2023-09-19T16:51:30;99822.57;;;20.76;87.16
37304;BME280;23188;51.188;16.374;2023-09-19T16:55:33;99825.83;;;20.75;87.19
37304;BME280;23188;51.188;16.374;2023-09-19T16:59:36;99829.81;;;20.75;86.85
37304;BME280;23188;51.188;16.374;2023-09-19T17:03:44;99831.67;;;20.73;86.68
37304;BME280;23188;51.188;16.374;2023-09-19T17:07:54;99831.91;;;20.67;86.65
37304;BME280;23188;51.188;16.374;2023-09-19T17:11:59;99837.79;;;20.59;86.95
37304;BME280;23188;51.188;16.374;2023-09-19T17:16:01;99844.61;;;20.49;87.07
37304;BME280;23188;51.188;16.374;2023-09-19T17:20:06;99848.59;;;20.37;87.13
37304;BME280;23188;51.188;16.374;2023-09-19T17:24:15;99845.34;;;20.24;87.61
37304;BME280;23188;51.188;16.374;2023-09-19T17:32:49;99857.69;;;19.96;88.71
37304;BME280;23188;51.188;16.374;2023-09-19T17:36:53;99864.33;;;19.87;88.72
37304;BME280;23188;51.188;16.374;2023-09-19T17:45:39;99872.02;;;19.71;88.05
37304;BME280;23188;51.188;16.374;2023-09-19T17:49:41;99874.04;;;19.59;87.74
37304;BME280;23188;51.188;16.374;2023-09-19T17:53:43;99877.23;;;19.46;88.25
37304;BME280;23188;51.188;16.374;2023-09-19T17:57:48;99882.30;;;19.35;89.08
37304;BME280;23188;51.188;16.374;2023-09-19T18:02:00;99888.54;;;19.23;89.53
37304;BME280;23188;51.188;16.374;2023-09-19T18:06:02;99893.14;;;19.14;89.75
37304;BME280;23188;51.188;16.374;2023-09-19T18:10:06;99895.68;;;19.06;90.35
37304;BME280;23188;51.188;16.374;2023-09-19T18:14:12;99895.33;;;19.01;90.82
37304;BME280;23188;51.188;16.374;2023-09-19T18:18:16;99897.30;;;18.94;91.56
37304;BME280;23188;51.188;16.374;2023-09-19T18:26:48;99907.30;;;18.73;92.89
37304;BME280;23188;51.188;16.374;2023-09-19T18:30:54;99909.73;;;18.66;92.89
37304;BME280;23188;51.188;16.374;2023-09-19T18:34:58;99903.91;;;18.58;93.27
37304;BME280;23188;51.188;16.374;2023-09-19T18:39:03;99904.95;;;18.51;93.18
37304;BME280;23188;51.188;16.374;2023-09-19T18:54:15;99907.52;;;18.32;96.74
37304;BME280;23188;51.188;16.374;2023-09-19T19:03:11;99916.53;;;17.66;100.00
37304;BME280;23188;51.188;16.374;2023-09-19T19:07:15;99916.04;;;17.55;100.00
37304;BME280;23188;51.188;16.374;2023-09-19T19:11:21;99921.58;;;17.30;100.00
37304;BME280;23188;51.188;16.374;2023-09-19T19:15:31;99927.70;;;17.18;100.00
37304;BME280;23188;51.188;16.374;2023-09-19T19:19:35;99928.90;;;17.15;100.00
37304;BME280;23188;51.188;16.374;2023-09-19T19:23:39;99926.44;;;17.18;100.00
37304;BME280;23188;51.188;16.374;2023-09-19T19:27:50;99926.74;;;17.21;100.00
37304;BME280;23188;51.188;16.374;2023-09-19T19:31:58;99925.33;;;17.25;100.00
37304;BME280;23188;51.188;16.374;2023-09-19T19:36:07;99928.57;;;17.31;100.00
37304;BME280;23188;51.188;16.374;2023-09-19T19:40:11;99927.22;;;17.31;100.00
37304;BME280;23188;51.188;16.374;2023-09-19T19:44:20;99930.80;;;17.28;100.00
37304;BME280;23188;51.188;16.374;2023-09-19T19:48:25;99934.70;;;17.22;100.00
37304;BME280;23188;51.188;16.374;2023-09-19T19:52:54;99940.02;;;17.12;99.99
37304;BME280;23188;51.188;16.374;2023-09-19T19:57:00;99940.02;;;17.01;99.76
37304;BME280;23188;51.188;16.374;2023-09-19T20:01:13;99941.12;;;16.86;99.41
37304;BME280;23188;51.188;16.374;2023-09-19T20:05:16;99943.60;;;16.72;100.00
37304;BME280;23188;51.188;16.374;2023-09-19T20:09:18;99953.98;;;16.55;100.00
37304;BME280;23188;51.188;16.374;2023-09-19T20:13:22;99953.64;;;16.43;100.00
37304;BME280;23188;51.188;16.374;2023-09-19T20:17:24;99946.50;;;16.33;100.00
37304;BME280;23188;51.188;16.374;2023-09-19T20:25:52;99956.01;;;16.03;100.00
37304;BME280;23188;51.188;16.374;2023-09-19T20:29:54;99967.67;;;15.87;100.00
37304;BME280;23188;51.188;16.374;2023-09-19T20:33:57;99969.29;;;15.76;100.00
37304;BME280;23188;51.188;16.374;2023-09-19T20:38:05;99972.10;;;15.73;100.00
37304;BME280;23188;51.188;16.374;2023-09-19T20:42:21;99972.48;;;15.71;100.00
37304;BME280;23188;51.188;16.374;2023-09-19T20:46:26;99971.06;;;15.75;100.00
37304;BME280;23188;51.188;16.374;2023-09-19T20:50:32;99970.31;;;15.83;100.00
37304;BME280;23188;51.188;16.374;2023-09-19T20:54:38;99973.48;;;15.87;100.00
37304;BME280;23188;51.188;16.374;2023-09-19T21:03:22;99978.19;;;15.94;100.00
37304;BME280;23188;51.188;16.374;2023-09-19T21:07:31;99978.70;;;15.94;100.00
37304;BME280;23188;51.188;16.374;2023-09-19T21:16:06;99984.27;;;16.05;100.00
37304;BME280;23188;51.188;16.374;2023-09-19T21:20:14;99988.48;;;16.07;100.00
37304;BME280;23188;51.188;16.374;2023-09-19T21:24:20;99988.83;;;16.11;100.00
37304;BME280;23188;51.188;16.374;2023-09-19T21:28:23;99993.53;;;16.05;100.00
37304;BME280;23188;51.188;16.374;2023-09-19T21:32:30;100000.36;;;15.88;100.00
37304;BME280;23188;51.188;16.374;2023-09-19T21:36:47;100000.14;;;15.72;100.00
37304;BME280;23188;51.188;16.374;2023-09-19T21:40:49;100004.55;;;15.63;100.00
37304;BME280;23188;51.188;16.374;2023-09-19T21:44:52;100004.52;;;15.63;100.00
37304;BME280;23188;51.188;16.374;2023-09-19T21:49:41;100002.62;;;15.66;100.00
37304;BME280;23188;51.188;16.374;2023-09-19T21:53:58;100003.08;;;15.65;100.00
37304;BME280;23188;51.188;16.374;2023-09-19T21:58:10;100001.81;;;15.67;100.00
37304;BME280;23188;51.188;16.374;2023-09-19T22:02:11;99996.27;;;15.71;100.00
37304;BME280;23188;51.188;16.374;2023-09-19T22:06:14;99995.36;;;15.72;100.00
37304;BME280;23188;51.188;16.374;2023-09-19T22:10:24;99991.18;;;15.69;100.00
37304;BME280;23188;51.188;16.374;2023-09-19T22:14:26;99989.23;;;15.65;100.00
37304;BME280;23188;51.188;16.374;2023-09-19T22:18:31;99988.33;;;15.64;100.00
37304;BME280;23188;51.188;16.374;2023-09-19T22:22:33;99987.70;;;15.60;100.00
37304;BME280;23188;51.188;16.374;2023-09-19T22:26:35;99983.27;;;15.52;100.00
37304;BME280;23188;51.188;16.374;2023-09-19T22:30:38;99976.75;;;15.45;100.00
37304;BME280;23188;51.188;16.374;2023-09-19T22:34:50;99976.73;;;15.40;100.00
37304;BME280;23188;51.188;16.374;2023-09-19T22:38:53;99981.27;;;15.33;100.00
37304;BME280;23188;51.188;16.374;2023-09-19T22:42:55;99980.41;;;15.26;100.00
37304;BME280;23188;51.188;16.374;2023-09-19T22:46:57;99980.66;;;15.23;100.00
37304;BME280;23188;51.188;16.374;2023-09-19T22:50:58;99982.80;;;15.23;100.00
37304;BME280;23188;51.188;16.374;2023-09-19T22:59:37;99982.80;;;15.35;100.00
37304;BME280;23188;51.188;16.374;2023-09-19T23:03:39;99983.91;;;15.36;100.00
37304;BME280;23188;51.188;16.374;2023-09-19T23:12:12;99991.92;;;15.37;100.00
37304;BME280;23188;51.188;16.374;2023-09-19T23:16:21;100000.33;;;15.38;100.00
37304;BME280;23188;51.188;16.374;2023-09-19T23:20:52;100002.81;;;15.44;100.00
37304;BME280;23188;51.188;16.374;2023-09-19T23:25:07;100002.09;;;15.47;99.99
37304;BME280;23188;51.188;16.374;2023-09-19T23:33:44;100007.17;;;15.48;99.46